Athabasca, Canada
Current Conditions -  °F | °C
As of 7:20 PM on Sunday 23 Nov 2014 (Local Time) from CYZH Reporting Station
Light Snow Light Snow  
Wind Chill: 13°   Ceiling: 1500
Heat Index: 19°   Visibility: 8mi
Dew Point: 18°   Wind: 5mph
Humidity: 93%   Direction: 100°E
Pressure: 29.71"   Gusts: NA
Location:  54.72°N, 113.27°W
Report Text: CYZH 240220Z AUTO 10004KT 8SM -SN BKN015 OVC027 M07/M08 A2971 RMK SLP105
Loading
Personal Weather Stations






























Interactive Weather Map New forecast layout! Learn more

10-Day Weather Forecast

Advertisements
Track Severe Weather on mobile